Accueil
METAR-TAF:

METAR-TAF

Aéroports :

Aéroport de Crotone

Crotone, Italie

latitude: 39-00N, longitude: 017-04E, altitude: 155 m

Observation

Le bulletin a été fait il y a 3 heures et 48 minutes, à 18:50 UTC
Vent 5 kt de sud/sud-est
Température 12°C
Humidité 94%
Pression 1003 hPa
Visibilité 10 km ou plus
Nuages épars à une hauteur de 2500 ft, Cumulonimbus.
Nuages fragmentés à une hauteur de 5000 ft
orage, pluie

METAR: LIBC 031850Z 16005KT 9999 TSRA SCT025CB BKN050 12/11 Q1003

Heure: 23:38 (22:38 UTC)

Prévision

Le bulletin a été fait il y a 5 heures et 38 minutes, à 17:00 UTC
Prévision valable du 03 à 18 UTC au 04 à 18 UTC
Vent 15 kt de sud
Visibilité 10 km ou plus
Nuages épars à une hauteur de 3000 ft
Temporairement
du 03 à 18 UTC au 03 à 22 UTC
Visibilité: 4000 m
orage, pluie

TAF: LIBC 031700Z 0318/0418 18015KT 9999 SCT030 TEMPO 0318/0322 4000 TSRA

Observations et prévisions météorologiques de plus de 4000 aéroports (messages METAR et TAF).

Les stations disponibles sont représentées par des disques jaunes et rouges sur la carte.

Passer la souris dessus pour voir le nom de la station.

Cliquer dessus pour voir les observations et prévisions météorologiques.

Pour changer de carte: cliquez sur les boutons verts avec une croix noire pour zoomer, sur le bouton vert avec un tiret pour effectuer un zoom arrière, ou sur les flèches vertes pour les cartes adjacentes.


METAR-TAF: